createdAt,value
2022-11-16T00:00:17.194Z,10.70
2022-11-16T00:01:17.531Z,11.30
2022-11-16T00:02:17.828Z,11.70
2022-11-16T00:03:18.089Z,10.20
2022-11-16T00:04:18.357Z,10.10
2022-11-16T00:05:18.613Z,10.70
2022-11-16T00:06:18.947Z,10.00
2022-11-16T00:07:19.275Z,10.70
2022-11-16T00:08:19.513Z,13.10
2022-11-16T00:09:19.841Z,10.70
2022-11-16T00:10:20.101Z,10.80
2022-11-16T00:11:20.404Z,12.00
2022-11-16T00:12:20.655Z,11.40
2022-11-16T00:13:20.943Z,9.40
2022-11-16T00:14:21.243Z,9.80
2022-11-16T00:15:21.529Z,10.70
2022-11-16T00:16:21.844Z,10.50
2022-11-16T00:17:22.109Z,10.50
2022-11-16T00:18:22.418Z,11.00
2022-11-16T00:19:22.678Z,11.40
2022-11-16T00:20:22.990Z,11.00
2022-11-16T00:21:23.279Z,11.40
2022-11-16T00:22:23.512Z,9.60
2022-11-16T00:23:23.817Z,10.70
2022-11-16T00:24:24.088Z,10.10
2022-11-16T00:25:24.369Z,11.00
2022-11-16T00:26:24.632Z,11.20
2022-11-16T00:27:24.873Z,10.50
2022-11-16T00:28:25.164Z,12.30
2022-11-16T00:29:25.489Z,10.70
2022-11-16T00:30:25.727Z,10.00
2022-11-16T00:31:26.034Z,12.00
2022-11-16T00:32:26.324Z,11.60
2022-11-16T00:33:26.630Z,10.00
2022-11-16T00:34:26.940Z,10.10
2022-11-16T00:35:27.178Z,10.10
2022-11-16T00:36:27.485Z,12.30
2022-11-16T00:37:27.800Z,10.20
2022-11-16T00:38:28.069Z,9.10
2022-11-16T00:39:28.335Z,12.10
2022-11-16T00:40:28.661Z,11.50
2022-11-16T00:41:28.915Z,10.40
2022-11-16T00:42:29.214Z,12.20
2022-11-16T00:43:29.504Z,10.90
2022-11-16T00:44:29.799Z,12.10
2022-11-16T00:45:30.075Z,12.00
2022-11-16T00:46:30.411Z,12.20
2022-11-16T00:47:30.689Z,11.70
2022-11-16T00:48:31.225Z,10.60
2022-11-16T00:49:31.294Z,10.60
2022-11-16T00:50:31.611Z,12.60
2022-11-16T00:51:31.864Z,11.60
2022-11-16T00:52:32.182Z,11.90
2022-11-16T00:53:32.492Z,10.20
2022-11-16T00:54:32.734Z,10.50
2022-11-16T00:55:33.023Z,10.70
2022-11-16T00:56:33.400Z,11.90
2022-11-16T00:57:33.711Z,12.30
2022-11-16T00:58:34.173Z,11.10
2022-11-16T00:59:34.298Z,10.80
2022-11-16T01:00:34.543Z,11.10
2022-11-16T01:01:34.936Z,12.60
2022-11-16T01:02:35.105Z,11.30
2022-11-16T01:03:35.422Z,12.20
2022-11-16T01:04:35.692Z,12.20
2022-11-16T01:05:35.993Z,13.20
2022-11-16T01:06:36.333Z,14.40
2022-11-16T01:07:36.629Z,12.90
2022-11-16T01:08:37.165Z,11.00
2022-11-16T01:09:37.186Z,10.70
2022-11-16T01:10:37.511Z,10.70
2022-11-16T01:11:37.789Z,12.00
2022-11-16T01:12:38.028Z,13.20
2022-11-16T01:13:38.334Z,11.30
2022-11-16T01:14:38.642Z,11.00
2022-11-16T01:15:38.935Z,12.10
2022-11-16T01:16:39.282Z,11.70
2022-11-16T01:17:39.559Z,13.10
2022-11-16T01:18:39.796Z,11.00
2022-11-16T01:19:40.115Z,14.30
2022-11-16T01:20:41.175Z,12.00
2022-11-16T01:21:40.662Z,13.80
2022-11-16T01:22:40.926Z,11.20
2022-11-16T01:23:41.252Z,13.70
2022-11-16T01:24:41.532Z,14.00
2022-11-16T01:25:41.826Z,13.10
2022-11-16T01:26:42.172Z,12.70
2022-11-16T01:27:42.454Z,12.10
2022-11-16T01:28:42.718Z,12.10
2022-11-16T01:29:43.044Z,12.60
2022-11-16T01:30:43.346Z,11.90
2022-11-16T01:31:43.695Z,12.80
2022-11-16T01:32:43.946Z,12.20
2022-11-16T01:33:44.274Z,12.10
2022-11-16T01:34:44.579Z,13.00
2022-11-16T01:35:44.913Z,12.50
2022-11-16T01:36:45.186Z,11.50
2022-11-16T01:37:45.466Z,13.70
2022-11-16T01:38:45.843Z,11.50
2022-11-16T01:39:46.017Z,10.80
2022-11-16T01:40:46.334Z,10.80
2022-11-16T01:41:46.664Z,11.00
2022-11-16T01:42:46.900Z,10.30
2022-11-16T01:43:47.225Z,11.90
2022-11-16T01:44:47.550Z,12.10
2022-11-16T01:45:47.798Z,11.20
2022-11-16T01:46:48.140Z,13.00
2022-11-16T01:47:48.441Z,11.50
2022-11-16T01:48:48.771Z,14.20
2022-11-16T01:49:49.088Z,13.60
2022-11-16T01:50:49.312Z,10.90
2022-11-16T01:51:49.609Z,11.00
2022-11-16T01:52:49.915Z,12.90
2022-11-16T01:53:50.188Z,12.20
2022-11-16T01:54:50.478Z,11.00
2022-11-16T01:55:50.794Z,11.50
2022-11-16T01:56:51.134Z,11.20
2022-11-16T01:57:51.412Z,12.60
2022-11-16T01:58:51.683Z,12.70
2022-11-16T01:59:51.959Z,14.00
2022-11-16T02:00:52.331Z,13.30
2022-11-16T02:01:52.598Z,13.20
2022-11-16T02:02:52.886Z,11.80
2022-11-16T02:03:53.215Z,13.30
2022-11-16T02:04:53.496Z,11.30
2022-11-16T02:05:53.740Z,11.40
2022-11-16T02:06:54.143Z,11.60
2022-11-16T02:07:54.335Z,14.00
2022-11-16T02:08:54.616Z,12.60
2022-11-16T02:09:54.963Z,13.20
2022-11-16T02:10:55.239Z,13.90
2022-11-16T02:11:55.549Z,13.60
2022-11-16T02:12:55.876Z,10.60
2022-11-16T02:13:56.124Z,12.40
2022-11-16T02:14:56.409Z,10.80
2022-11-16T02:15:56.718Z,9.00
2022-11-16T02:16:56.999Z,9.50
2022-11-16T02:17:57.270Z,11.80
2022-11-16T02:18:57.585Z,9.80
2022-11-16T02:19:57.836Z,10.40
2022-11-16T02:20:58.135Z,9.80
2022-11-16T02:21:58.453Z,8.80
2022-11-16T02:22:58.678Z,11.70
2022-11-16T02:23:58.972Z,10.40
2022-11-16T02:24:59.277Z,9.70
2022-11-16T02:25:59.539Z,8.50
2022-11-16T02:26:59.832Z,8.80
2022-11-16T02:28:00.116Z,9.30
2022-11-16T02:29:00.405Z,8.90
2022-11-16T02:30:00.686Z,9.80
2022-11-16T02:31:00.984Z,10.60
2022-11-16T02:32:01.282Z,8.10
2022-11-16T02:33:01.554Z,8.70
2022-11-16T02:34:02.012Z,8.70
2022-11-16T02:35:02.086Z,8.00
2022-11-16T02:36:02.376Z,6.60
2022-11-16T02:37:02.628Z,7.10
2022-11-16T02:38:02.899Z,6.50
2022-11-16T02:39:03.179Z,7.80
2022-11-16T02:40:03.496Z,8.40
2022-11-16T02:41:03.720Z,5.70
2022-11-16T02:42:04.039Z,7.70
2022-11-16T02:43:04.277Z,6.80
2022-11-16T02:44:04.547Z,5.60
2022-11-16T02:45:04.823Z,5.80
2022-11-16T02:46:05.131Z,8.00
2022-11-16T02:47:05.404Z,5.30
2022-11-16T02:48:05.695Z,5.70
2022-11-16T02:49:05.960Z,4.80
2022-11-16T02:50:06.297Z,4.20
2022-11-16T02:51:06.520Z,4.20
2022-11-16T02:52:06.801Z,4.30
2022-11-16T02:53:07.080Z,3.90
2022-11-16T02:54:07.376Z,4.30
2022-11-16T02:55:07.645Z,4.90
2022-11-16T02:56:07.930Z,4.90
2022-11-16T02:57:08.221Z,5.00
2022-11-16T02:58:08.490Z,4.90
2022-11-16T02:59:08.761Z,6.00
2022-11-16T03:00:09.035Z,5.20
2022-11-16T03:01:09.381Z,5.20
2022-11-16T03:02:09.641Z,5.60
2022-11-16T03:03:09.896Z,5.00
2022-11-16T03:04:10.188Z,5.30
2022-11-16T03:05:10.439Z,7.70
2022-11-16T03:06:10.701Z,5.60
2022-11-16T03:07:11.013Z,6.00
2022-11-16T03:08:11.277Z,6.20
2022-11-16T03:09:11.502Z,5.60
2022-11-16T03:10:11.798Z,6.20
2022-11-16T03:11:12.074Z,5.60
2022-11-16T03:12:12.362Z,5.20
2022-11-16T03:13:12.639Z,5.90
2022-11-16T03:14:12.937Z,6.60
2022-11-16T03:15:13.187Z,6.00
2022-11-16T03:16:13.479Z,6.40
2022-11-16T03:17:13.777Z,5.70
2022-11-16T03:18:14.035Z,4.90
2022-11-16T03:19:14.316Z,6.80
2022-11-16T03:20:14.609Z,5.70
2022-11-16T03:21:14.872Z,5.30
2022-11-16T03:22:15.198Z,5.50
2022-11-16T03:23:15.421Z,5.40
2022-11-16T03:24:15.691Z,5.40
2022-11-16T03:25:15.974Z,5.20
2022-11-16T03:26:16.245Z,5.30
2022-11-16T03:27:16.567Z,6.60
2022-11-16T03:28:16.819Z,6.00
2022-11-16T03:29:17.043Z,4.60
2022-11-16T03:30:20.080Z,5.40
2022-11-16T03:31:18.546Z,5.20
2022-11-16T03:32:17.854Z,5.90
2022-11-16T03:33:18.130Z,4.80
2022-11-16T03:34:18.430Z,6.60
2022-11-16T03:35:18.662Z,4.80
2022-11-16T03:36:18.934Z,5.20
2022-11-16T03:37:19.222Z,4.70
2022-11-16T03:38:19.529Z,6.60
2022-11-16T03:39:19.779Z,4.90
2022-11-16T03:40:20.063Z,5.70
2022-11-16T03:41:20.333Z,8.00
2022-11-16T03:42:20.649Z,5.10
2022-11-16T03:43:20.872Z,5.90
2022-11-16T03:44:21.180Z,5.90
2022-11-16T03:45:21.439Z,6.10
2022-11-16T03:46:21.690Z,5.00
2022-11-16T03:47:22.000Z,6.00
2022-11-16T03:48:22.234Z,7.50
2022-11-16T03:49:22.498Z,5.30
2022-11-16T03:50:22.791Z,4.60
2022-11-16T03:51:23.081Z,6.20
2022-11-16T03:52:23.351Z,5.20
2022-11-16T03:53:23.574Z,5.30
2022-11-16T03:54:23.878Z,5.90
2022-11-16T03:55:24.144Z,6.50
2022-11-16T03:56:24.440Z,4.40
2022-11-16T03:57:24.748Z,4.50
2022-11-16T03:58:24.998Z,5.20
2022-11-16T03:59:25.264Z,5.20
2022-11-16T04:00:25.570Z,4.90
2022-11-16T04:01:25.867Z,5.10
2022-11-16T04:02:26.170Z,6.40
2022-11-16T04:03:26.430Z,5.50
2022-11-16T04:04:26.721Z,6.70
2022-11-16T04:05:26.970Z,4.40
2022-11-16T04:06:27.234Z,5.20
2022-11-16T04:07:27.592Z,5.30
2022-11-16T04:08:27.832Z,5.60
2022-11-16T04:09:28.131Z,6.10
2022-11-16T04:10:28.355Z,6.70
2022-11-16T04:11:28.653Z,5.00
2022-11-16T04:12:28.921Z,7.70
2022-11-16T04:13:29.172Z,6.90
2022-11-16T04:14:29.435Z,6.40
2022-11-16T04:15:29.821Z,6.60
2022-11-16T04:16:30.034Z,5.90
2022-11-16T04:17:30.348Z,6.10
2022-11-16T04:18:30.955Z,5.90
2022-11-16T04:19:30.844Z,6.10
2022-11-16T04:20:31.125Z,6.50
2022-11-16T04:21:31.398Z,5.80
2022-11-16T04:22:31.680Z,7.30
2022-11-16T04:23:31.947Z,6.50
2022-11-16T04:24:32.253Z,6.50
2022-11-16T04:25:32.477Z,5.80
2022-11-16T04:26:32.758Z,7.80
2022-11-16T04:27:33.047Z,6.90
2022-11-16T04:28:33.714Z,6.30
2022-11-16T04:29:33.606Z,7.00
2022-11-16T04:30:33.902Z,7.00
2022-11-16T04:31:34.166Z,7.30
2022-11-16T04:32:34.467Z,6.70
2022-11-16T04:33:34.722Z,5.90
2022-11-16T04:34:34.947Z,5.90
2022-11-16T04:35:35.224Z,6.40
2022-11-16T04:36:35.532Z,5.60
2022-11-16T04:37:35.835Z,5.60
2022-11-16T04:38:36.286Z,5.80
2022-11-16T04:39:36.336Z,6.10
2022-11-16T04:40:36.620Z,6.00
2022-11-16T04:41:36.913Z,6.90
2022-11-16T04:42:37.166Z,6.00
2022-11-16T04:43:37.434Z,6.30
2022-11-16T04:44:37.693Z,7.00
2022-11-16T04:45:37.918Z,6.60
2022-11-16T04:46:38.213Z,6.90
2022-11-16T04:47:38.525Z,8.60
2022-11-16T04:48:38.777Z,6.40
2022-11-16T04:49:39.063Z,8.10
2022-11-16T04:50:39.327Z,6.90
2022-11-16T04:51:39.634Z,8.80
2022-11-16T04:52:39.905Z,6.70
2022-11-16T04:53:40.128Z,8.40
2022-11-16T04:54:40.424Z,8.40
2022-11-16T04:55:40.688Z,8.20
2022-11-16T04:56:40.934Z,7.60
2022-11-16T04:57:41.209Z,7.00
2022-11-16T04:58:41.505Z,8.20
2022-11-16T04:59:41.783Z,8.20
2022-11-16T05:00:42.073Z,7.20
2022-11-16T05:01:42.431Z,7.20
2022-11-16T05:02:42.724Z,8.40
2022-11-16T05:03:42.949Z,9.40
2022-11-16T05:04:43.266Z,7.90
2022-11-16T05:05:43.489Z,9.90
2022-11-16T05:06:43.769Z,9.00
2022-11-16T05:07:44.076Z,7.40
2022-11-16T05:08:44.299Z,8.60
2022-11-16T05:09:44.603Z,7.80
2022-11-16T05:10:44.828Z,7.20
2022-11-16T05:11:45.098Z,7.10
2022-11-16T05:12:45.379Z,8.10
2022-11-16T05:13:45.685Z,7.50
2022-11-16T05:14:45.955Z,7.80
2022-11-16T05:15:46.263Z,7.90
2022-11-16T05:16:46.499Z,7.90
2022-11-16T05:17:46.799Z,7.30
2022-11-16T05:18:47.067Z,9.20
2022-11-16T05:19:47.317Z,9.10
2022-11-16T05:20:47.583Z,7.30
2022-11-16T05:21:47.859Z,6.00
2022-11-16T05:22:48.170Z,5.00
2022-11-16T05:23:48.412Z,6.00
2022-11-16T05:24:48.679Z,4.10
2022-11-16T05:25:48.960Z,5.60
2022-11-16T05:26:49.257Z,6.00
2022-11-16T05:27:49.583Z,8.00
2022-11-16T05:28:49.809Z,4.60
2022-11-16T05:29:50.082Z,4.80
2022-11-16T05:30:50.388Z,4.40
2022-11-16T05:31:50.636Z,5.10
2022-11-16T05:32:50.936Z,2.70
2022-11-16T05:33:51.195Z,3.00
2022-11-16T05:34:51.422Z,3.10
2022-11-16T05:35:51.722Z,3.40
2022-11-16T05:36:51.941Z,3.10
2022-11-16T05:37:52.241Z,3.10
2022-11-16T05:38:56.072Z,4.20
2022-11-16T05:39:52.731Z,5.10
2022-11-16T05:40:53.028Z,4.40
2022-11-16T05:41:53.279Z,5.30
2022-11-16T05:42:53.597Z,5.10
2022-11-16T05:43:53.821Z,3.70
2022-11-16T05:44:54.108Z,4.10
2022-11-16T05:45:54.400Z,3.90
2022-11-16T05:46:54.654Z,6.30
2022-11-16T05:47:54.969Z,4.70
2022-11-16T05:48:55.248Z,4.00
2022-11-16T05:49:55.476Z,5.10
2022-11-16T05:50:55.762Z,5.40
2022-11-16T05:51:56.044Z,5.00
2022-11-16T05:52:56.376Z,4.70
2022-11-16T05:53:56.616Z,3.30
2022-11-16T05:54:56.841Z,3.30
2022-11-16T05:55:57.215Z,2.80
2022-11-16T05:56:57.433Z,4.90
2022-11-16T05:57:57.768Z,5.00
2022-11-16T05:58:57.999Z,4.10
2022-11-16T05:59:58.278Z,3.90
2022-11-16T06:00:58.591Z,4.30
2022-11-16T06:01:58.851Z,4.50
2022-11-16T06:02:59.228Z,3.00
2022-11-16T06:03:59.444Z,4.20
2022-11-16T06:04:59.738Z,3.40
2022-11-16T06:06:00.074Z,4.10
2022-11-16T06:07:00.383Z,3.70
2022-11-16T06:08:00.704Z,3.60
2022-11-16T06:09:00.969Z,5.90
2022-11-16T06:10:01.203Z,5.80
2022-11-16T06:11:01.500Z,4.30
2022-11-16T06:12:01.734Z,3.10
2022-11-16T06:13:02.033Z,4.80
2022-11-16T06:14:02.314Z,4.90
2022-11-16T06:15:02.552Z,4.70
2022-11-16T06:16:02.852Z,5.20
2022-11-16T06:17:03.089Z,5.70
2022-11-16T06:18:03.363Z,5.20
2022-11-16T06:19:03.653Z,4.50
2022-11-16T06:20:03.965Z,3.60
2022-11-16T06:21:04.304Z,4.30
2022-11-16T06:22:04.571Z,4.10
2022-11-16T06:23:04.834Z,5.20
2022-11-16T06:24:05.090Z,4.90
2022-11-16T06:25:05.342Z,4.80
2022-11-16T06:26:05.630Z,7.60
2022-11-16T06:27:05.914Z,6.50
2022-11-16T06:28:08.068Z,5.90
2022-11-16T06:29:06.450Z,5.50
2022-11-16T06:30:06.732Z,3.90
2022-11-16T06:31:07.021Z,2.80
2022-11-16T06:32:07.244Z,3.40
2022-11-16T06:33:07.561Z,4.40
2022-11-16T06:34:07.820Z,5.60
2022-11-16T06:35:08.078Z,4.20
2022-11-16T06:36:08.372Z,7.20
2022-11-16T06:37:08.660Z,5.80
2022-11-16T06:38:08.956Z,4.10
2022-11-16T06:39:09.251Z,4.30
2022-11-16T06:40:09.552Z,7.40
2022-11-16T06:41:09.784Z,5.10
2022-11-16T06:42:10.092Z,6.80
2022-11-16T06:43:10.401Z,5.30
2022-11-16T06:44:10.635Z,5.70
2022-11-16T06:45:10.924Z,6.00
2022-11-16T06:46:11.214Z,6.50
2022-11-16T06:47:11.485Z,5.80
2022-11-16T06:48:11.796Z,5.40
2022-11-16T06:49:12.094Z,6.20
2022-11-16T06:50:12.420Z,6.20
2022-11-16T06:51:12.706Z,7.70
2022-11-16T06:52:12.995Z,5.60
2022-11-16T06:54:44.918Z,7.70
2022-11-16T06:55:29.439Z,8.10
2022-11-16T06:56:29.729Z,5.60
2022-11-16T06:57:30.018Z,6.10
2022-11-16T06:58:30.414Z,8.40
2022-11-16T06:59:30.668Z,7.70
2022-11-16T07:00:31.063Z,5.20
2022-11-16T07:01:31.337Z,7.50
2022-11-16T07:02:31.568Z,5.40
2022-11-16T07:03:31.905Z,5.00
2022-11-16T07:04:32.182Z,4.90
2022-11-16T07:05:32.473Z,7.60
2022-11-16T07:06:32.784Z,6.00
2022-11-16T07:07:33.137Z,6.60
2022-11-16T07:08:33.688Z,6.70
2022-11-16T07:09:33.688Z,3.60
2022-11-16T07:10:33.977Z,7.80
2022-11-16T07:11:34.303Z,6.50
2022-11-16T07:12:34.575Z,8.20
2022-11-16T07:13:34.904Z,8.10
2022-11-16T07:14:35.148Z,6.00
2022-11-16T07:15:35.463Z,6.30
2022-11-16T07:16:35.776Z,6.20
2022-11-16T07:17:36.060Z,5.20
2022-11-16T07:18:36.780Z,10.30
2022-11-16T07:19:36.712Z,7.10
2022-11-16T07:20:36.960Z,6.50
2022-11-16T07:21:37.248Z,5.20
2022-11-16T07:22:37.574Z,6.20
2022-11-16T07:23:37.855Z,6.90
2022-11-16T07:24:38.101Z,7.00
2022-11-16T07:25:38.399Z,7.40
2022-11-16T07:26:38.698Z,7.60
2022-11-16T07:27:39.026Z,6.00
2022-11-16T07:28:44.914Z,7.90
2022-11-16T07:29:40.544Z,6.40
2022-11-16T07:30:39.880Z,8.60
2022-11-16T07:31:40.197Z,5.90
2022-11-16T07:32:43.303Z,7.40
2022-11-16T07:33:40.831Z,11.20
2022-11-16T07:34:41.106Z,8.70
2022-11-16T07:35:41.426Z,8.80
2022-11-16T07:36:41.677Z,7.00
2022-11-16T07:37:41.970Z,11.70
2022-11-16T07:38:42.307Z,10.50
2022-11-16T07:39:42.605Z,10.90
2022-11-16T07:40:42.903Z,10.70
2022-11-16T07:41:43.195Z,11.70
2022-11-16T07:42:43.468Z,12.20
2022-11-16T07:43:47.200Z,20.20
2022-11-16T07:44:45.105Z,17.30
2022-11-16T07:45:44.347Z,14.40
2022-11-16T07:46:47.140Z,20.30
2022-11-16T07:47:44.919Z,31.00
2022-11-16T07:48:45.155Z,34.90
2022-11-16T07:49:45.404Z,33.70
2022-11-16T07:50:45.698Z,39.80
2022-11-16T07:51:45.945Z,37.90
2022-11-16T07:52:46.161Z,38.40
2022-11-16T07:53:46.540Z,37.10
2022-11-16T07:54:46.888Z,35.80
2022-11-16T07:55:47.180Z,25.50
2022-11-16T07:56:48.391Z,22.40
2022-11-16T07:57:52.955Z,13.60
2022-11-16T07:58:49.019Z,16.90
2022-11-16T07:59:48.266Z,15.90
2022-11-16T08:00:48.479Z,37.20
2022-11-16T08:01:48.927Z,20.80
2022-11-16T08:02:49.115Z,17.70
2022-11-16T08:03:49.376Z,17.90
2022-11-16T08:04:49.696Z,16.60
2022-11-16T08:05:49.909Z,18.90
2022-11-16T08:06:50.325Z,17.60
2022-11-16T08:07:50.528Z,15.60
2022-11-16T08:08:56.681Z,17.00
2022-11-16T08:09:52.325Z,13.40
2022-11-16T08:10:51.769Z,13.00
2022-11-16T08:11:51.806Z,17.00
2022-11-16T08:12:52.107Z,15.50
2022-11-16T08:13:52.413Z,11.10
2022-11-16T08:14:52.631Z,12.60
2022-11-16T08:15:53.041Z,11.30
2022-11-16T08:16:53.290Z,14.80
2022-11-16T08:17:53.460Z,12.20
2022-11-16T08:18:53.909Z,11.30
2022-11-16T08:19:54.136Z,13.70
2022-11-16T08:20:54.390Z,9.70
2022-11-16T08:21:54.690Z,11.70
2022-11-16T08:22:55.067Z,8.90
2022-11-16T08:23:58.405Z,9.90
2022-11-16T08:24:55.637Z,10.30
2022-11-16T08:25:55.998Z,9.50
2022-11-16T08:26:56.296Z,10.80
2022-11-16T08:27:56.677Z,8.20
2022-11-16T08:28:56.882Z,11.70
2022-11-16T08:29:57.198Z,7.80
2022-11-16T08:30:57.501Z,7.10
2022-11-16T08:31:57.836Z,10.00
2022-11-16T08:32:58.168Z,9.20
2022-11-16T08:33:58.501Z,11.50
2022-11-16T08:34:58.828Z,8.20
2022-11-16T08:35:59.091Z,9.60
2022-11-16T08:36:59.426Z,9.40
2022-11-16T08:37:59.740Z,8.60
2022-11-16T08:39:00.076Z,11.30
2022-11-16T08:40:00.424Z,8.20
2022-11-16T08:41:00.731Z,9.00
2022-11-16T08:42:01.051Z,9.20
2022-11-16T08:43:01.362Z,9.50
2022-11-16T08:44:01.710Z,9.70
2022-11-16T08:45:01.981Z,7.80
2022-11-16T08:46:02.348Z,14.30
2022-11-16T08:47:02.622Z,12.30
2022-11-16T08:48:04.490Z,9.10
2022-11-16T08:49:03.290Z,9.60
2022-11-16T08:50:10.430Z,7.50
2022-11-16T08:51:19.968Z,11.20
2022-11-16T08:52:04.063Z,10.30
2022-11-16T08:53:04.402Z,12.20
2022-11-16T08:54:04.752Z,8.80
2022-11-16T08:55:05.072Z,10.80
2022-11-16T08:56:05.427Z,15.40
2022-11-16T08:57:05.778Z,11.60
2022-11-16T08:58:06.089Z,11.60
2022-11-16T08:59:06.315Z,10.90
2022-11-16T09:00:06.628Z,13.90
2022-11-16T09:01:06.953Z,9.70
2022-11-16T09:02:07.327Z,9.60
2022-11-16T09:03:07.582Z,8.30
2022-11-16T09:04:07.913Z,8.90
2022-11-16T09:05:08.248Z,10.50
2022-11-16T09:06:08.599Z,9.80
2022-11-16T09:07:08.951Z,9.00
2022-11-16T09:08:09.229Z,9.10
2022-11-16T09:09:09.553Z,10.30
2022-11-16T09:10:09.883Z,9.00
2022-11-16T09:11:10.220Z,11.00
2022-11-16T09:12:10.541Z,10.20
2022-11-16T09:13:10.863Z,11.90
2022-11-16T09:14:11.214Z,7.80
2022-11-16T09:15:11.494Z,10.40
2022-11-16T09:16:11.800Z,9.80
2022-11-16T09:17:12.107Z,9.50
2022-11-16T09:18:12.433Z,12.20
2022-11-16T09:19:12.782Z,11.50
2022-11-16T09:20:13.105Z,9.20
2022-11-16T09:21:13.416Z,11.40
2022-11-16T09:22:13.733Z,13.50
2022-11-16T09:23:14.075Z,9.50
2022-11-16T09:24:14.395Z,9.40
2022-11-16T09:25:14.704Z,15.70
2022-11-16T09:26:15.032Z,28.80
2022-11-16T09:27:15.344Z,16.60
2022-11-16T09:28:15.682Z,14.50
2022-11-16T09:29:16.034Z,13.00
2022-11-16T09:30:16.374Z,10.60
2022-11-16T09:31:23.017Z,14.70
2022-11-16T09:32:17.967Z,10.60
2022-11-16T09:33:17.315Z,9.00
2022-11-16T09:34:17.655Z,11.30
2022-11-16T09:35:17.945Z,7.90
2022-11-16T09:36:18.262Z,12.20
2022-11-16T09:37:18.609Z,11.30
2022-11-16T09:38:27.007Z,9.60
2022-11-16T09:39:31.154Z,9.10
2022-11-16T09:40:20.454Z,9.40
2022-11-16T09:41:40.785Z,10.20
2022-11-16T09:42:20.078Z,10.40
2022-11-16T09:43:20.404Z,9.50
2022-11-16T09:44:20.736Z,9.00
2022-11-16T09:45:21.047Z,11.40
2022-11-16T09:46:21.375Z,10.90
2022-11-16T09:47:21.681Z,10.10
2022-11-16T09:48:21.999Z,10.20
2022-11-16T09:49:22.335Z,8.70
2022-11-16T09:50:22.704Z,10.40
2022-11-16T09:51:22.926Z,9.10
2022-11-16T09:52:23.257Z,13.70
2022-11-16T09:53:24.115Z,10.20
2022-11-16T09:54:23.856Z,9.20
2022-11-16T09:55:24.145Z,9.90
2022-11-16T09:56:24.456Z,10.00
2022-11-16T09:57:24.785Z,8.80
2022-11-16T09:58:25.096Z,13.00
2022-11-16T09:59:25.444Z,9.20
2022-11-16T10:00:25.848Z,8.40
2022-11-16T10:01:26.140Z,8.80
2022-11-16T10:02:26.276Z,12.50
2022-11-16T10:03:26.616Z,9.40
2022-11-16T10:04:26.962Z,10.50
2022-11-16T10:05:27.260Z,9.70
2022-11-16T10:06:27.575Z,11.20
2022-11-16T10:07:27.949Z,11.40
2022-11-16T10:08:28.157Z,13.10
2022-11-16T10:09:28.497Z,11.90
2022-11-16T10:10:28.846Z,11.50
2022-11-16T10:11:29.181Z,10.60
2022-11-16T10:12:29.517Z,9.30
2022-11-16T10:13:29.842Z,11.30
2022-11-16T10:14:30.200Z,11.00
2022-11-16T10:15:30.504Z,11.10
2022-11-16T10:16:30.840Z,8.30
2022-11-16T10:17:31.171Z,12.00
2022-11-16T10:18:31.506Z,11.00
2022-11-16T10:19:31.872Z,10.30
2022-11-16T10:20:32.187Z,8.70
2022-11-16T10:21:32.518Z,10.70
2022-11-16T10:22:32.808Z,10.90
2022-11-16T10:23:33.423Z,8.50
2022-11-16T10:24:33.459Z,9.10
2022-11-16T10:25:33.749Z,13.40
2022-11-16T10:26:34.100Z,8.10
2022-11-16T10:27:34.397Z,9.30
2022-11-16T10:28:34.671Z,11.30
2022-11-16T10:29:35.030Z,14.70
2022-11-16T10:30:35.323Z,9.30
2022-11-16T10:31:35.652Z,10.90
2022-11-16T10:32:35.978Z,7.40
2022-11-16T10:33:36.723Z,14.20
2022-11-16T10:34:36.599Z,9.50
2022-11-16T10:35:36.895Z,7.00
2022-11-16T10:36:37.210Z,9.20
2022-11-16T10:37:37.531Z,9.90
2022-11-16T10:38:37.861Z,8.80
2022-11-16T10:39:38.193Z,8.50
2022-11-16T10:40:38.477Z,5.90
2022-11-16T10:41:38.811Z,7.50
2022-11-16T10:42:39.132Z,6.70
2022-11-16T10:43:39.458Z,8.10
2022-11-16T10:44:39.803Z,9.50
2022-11-16T10:45:40.084Z,7.80
2022-11-16T10:46:40.401Z,9.80
2022-11-16T10:47:40.709Z,10.80
2022-11-16T10:48:41.064Z,7.90
2022-11-16T10:49:41.343Z,10.20
2022-11-16T10:50:41.621Z,9.60
2022-11-16T10:51:41.964Z,9.30
2022-11-16T10:52:42.241Z,11.20
2022-11-16T10:53:42.570Z,8.60
2022-11-16T10:54:44.377Z,9.30
2022-11-16T10:55:43.122Z,9.70
2022-11-16T10:56:43.464Z,13.70
2022-11-16T10:57:43.745Z,7.30
2022-11-16T10:58:44.084Z,10.30
2022-11-16T10:59:44.321Z,6.10
2022-11-16T11:00:44.647Z,8.60
2022-11-16T11:01:44.911Z,10.20
2022-11-16T11:02:45.212Z,8.90
2022-11-16T11:03:45.530Z,9.10
2022-11-16T11:04:45.873Z,7.40
2022-11-16T11:05:46.163Z,10.00
2022-11-16T11:06:46.386Z,8.30
2022-11-16T11:07:46.697Z,10.00
2022-11-16T11:08:47.025Z,13.40
2022-11-16T11:09:47.385Z,16.60
2022-11-16T11:10:47.581Z,8.50
2022-11-16T11:11:47.919Z,9.80
2022-11-16T11:12:48.227Z,10.60
2022-11-16T11:13:48.557Z,8.70
2022-11-16T11:14:48.904Z,8.10
2022-11-16T11:15:50.103Z,6.70
2022-11-16T11:16:49.465Z,7.40
2022-11-16T11:17:49.770Z,7.70
2022-11-16T11:18:50.072Z,8.50
2022-11-16T11:19:50.411Z,9.20
2022-11-16T11:20:50.731Z,6.40
2022-11-16T11:21:51.064Z,6.60
2022-11-16T11:22:51.387Z,8.90
2022-11-16T11:23:51.716Z,7.60
2022-11-16T11:24:52.052Z,10.00
2022-11-16T11:25:52.332Z,5.80
2022-11-16T11:26:52.665Z,8.40
2022-11-16T11:27:52.974Z,7.80
2022-11-16T11:28:53.333Z,11.00
2022-11-16T11:29:53.634Z,7.20
2022-11-16T11:30:53.897Z,8.80
2022-11-16T11:31:54.219Z,7.50
2022-11-16T11:32:54.523Z,9.80
2022-11-16T11:33:54.845Z,6.90
2022-11-16T11:34:55.187Z,7.90
2022-11-16T11:35:55.464Z,7.70
2022-11-16T11:36:55.771Z,9.30
2022-11-16T11:37:56.082Z,7.90
2022-11-16T11:38:56.411Z,7.90
2022-11-16T11:39:56.735Z,7.30
2022-11-16T11:40:57.054Z,7.20
2022-11-16T11:41:57.373Z,7.00
2022-11-16T11:42:57.683Z,7.90
2022-11-16T11:43:59.034Z,8.50
2022-11-16T11:44:58.255Z,6.80
2022-11-16T11:45:58.571Z,6.90
2022-11-16T11:48:00.491Z,6.70
2022-11-16T11:48:59.541Z,8.70
2022-11-16T11:49:59.719Z,7.50
2022-11-16T11:51:00.026Z,6.90
2022-11-16T11:52:00.337Z,10.30
2022-11-16T11:53:00.684Z,6.20
2022-11-16T11:54:00.956Z,9.00
2022-11-16T11:55:01.307Z,8.90
2022-11-16T11:56:01.574Z,6.70
2022-11-16T11:57:01.896Z,6.40
2022-11-16T11:58:02.358Z,8.30
2022-11-16T11:59:02.518Z,5.80
2022-11-16T12:00:02.859Z,6.10
2022-11-16T12:01:03.137Z,6.30
2022-11-16T12:02:03.472Z,4.30
2022-11-16T12:03:03.871Z,5.30
2022-11-16T12:04:04.005Z,7.30
2022-11-16T12:05:04.431Z,5.30
2022-11-16T12:06:04.613Z,5.00
2022-11-16T12:09:25.829Z,7.80
2022-11-16T12:10:26.150Z,7.80
2022-11-16T12:11:26.482Z,8.50
2022-11-16T12:12:26.800Z,7.30
2022-11-16T12:13:27.125Z,10.20
2022-11-16T12:14:27.462Z,6.00
2022-11-16T12:15:27.823Z,8.00
2022-11-16T12:16:28.122Z,9.80
2022-11-16T12:17:28.434Z,7.60
2022-11-16T12:18:28.739Z,8.20
2022-11-16T12:19:29.053Z,9.30
2022-11-16T12:20:29.460Z,6.90
2022-11-16T12:21:29.715Z,7.60
2022-11-16T12:22:30.045Z,9.20
2022-11-16T12:23:30.363Z,7.10
2022-11-16T12:24:31.554Z,4.90
2022-11-16T12:25:31.026Z,5.30
2022-11-16T12:26:31.313Z,5.80
2022-11-16T12:27:31.639Z,6.20
2022-11-16T12:28:31.952Z,6.70
2022-11-16T12:29:32.263Z,7.00
2022-11-16T12:30:32.605Z,5.90
2022-11-16T12:31:32.896Z,5.10
2022-11-16T12:32:33.225Z,7.20
2022-11-16T12:33:33.848Z,6.20
2022-11-16T12:34:33.806Z,5.80
2022-11-16T12:35:35.121Z,6.30
2022-11-16T12:36:34.462Z,4.70
2022-11-16T12:37:34.780Z,6.20
2022-11-16T12:38:35.113Z,6.90
2022-11-16T12:39:35.391Z,7.20
2022-11-16T12:40:35.746Z,5.20
2022-11-16T12:41:36.123Z,5.30
2022-11-16T12:42:36.287Z,5.90
2022-11-16T12:43:36.880Z,5.50
2022-11-16T12:44:36.923Z,6.50
2022-11-16T12:45:37.266Z,4.40
2022-11-16T12:46:37.564Z,5.60
2022-11-16T12:47:37.846Z,5.30
2022-11-16T12:48:38.189Z,4.50
2022-11-16T12:49:38.485Z,4.00
2022-11-16T12:50:38.787Z,5.90
2022-11-16T12:51:39.094Z,4.40
2022-11-16T12:52:39.412Z,6.20
2022-11-16T12:53:39.728Z,8.50
2022-11-16T12:54:57.700Z,5.10
2022-11-16T12:55:41.277Z,5.90
2022-11-16T12:56:43.399Z,6.80
2022-11-16T12:57:41.742Z,5.20
2022-11-16T12:58:41.097Z,4.40
2022-11-16T12:59:41.371Z,6.20
2022-11-16T13:00:41.957Z,5.60
2022-11-16T13:01:42.013Z,6.00
2022-11-16T13:02:42.195Z,4.10
2022-11-16T13:03:42.516Z,5.30
2022-11-16T13:04:42.838Z,5.30
2022-11-16T13:05:43.162Z,5.30
2022-11-16T13:06:43.439Z,4.50
2022-11-16T13:07:43.832Z,4.80
2022-11-16T13:08:44.098Z,5.50
2022-11-16T13:09:44.426Z,5.10
2022-11-16T13:10:44.776Z,4.10
2022-11-16T13:11:45.071Z,5.50
2022-11-16T13:12:45.415Z,5.60
2022-11-16T13:13:51.370Z,4.70
2022-11-16T13:14:46.960Z,4.10
2022-11-16T13:15:46.321Z,4.70
2022-11-16T13:16:46.616Z,6.80
2022-11-16T13:17:46.931Z,6.20